Flight Track Log - Related Links

Times and Time Zones

All times are in EST time to prevent confusion due to time zone crossing. See the N45NS flight status page for this flight to view local times or setup timezone preferences in your user account.

Time Position Orientation Groundspeed Altitude Reporting Facility
EST Latitude Longitude Course Direction KTS MPH feet Rate Location/Type
Thu 07:17:14 PM 26.2075 -80.2061 295° West 190 219 1,800  Level Miami Center
Thu 07:18:19 PM 26.2425 -80.2489 312° West 219 252 2,900 1,075 Climbing Miami Center
Thu 07:18:21 PM 26.2578 -80.2703 309° West 256 295 3,000  Climbing Miami Center
Thu 07:19:21 PM 26.2997 -80.3169 315° West 236 272 2,900 893 Descending Miami Center
Thu 07:20:22 PM 26.3653 -80.3536 333° Northwest 277 319 4,800 2,537 Climbing Miami Center
Thu 07:21:24 PM 26.4428 -80.3772 345° North 290 334 8,100 2,952 Climbing Miami Center
Thu 07:22:26 PM 26.5386 -80.4067 345° North 297 342 10,900 2,565 Climbing Miami Center
Thu 07:23:28 PM 26.6194 -80.4347 343° North 302 348 13,400 2,371 Climbing Miami Center
Thu 07:24:30 PM 26.7028 -80.4753 337° Northwest 303 349 15,800 1,854 Climbing Miami Center
Thu 07:25:31 PM 26.7678 -80.5047 338° Northwest 318 366 17,200 1,659 Climbing Miami Center
Thu 07:26:33 PM 26.8692 -80.5519 337° Northwest 338 389 19,200 1,887 Climbing Miami Center
Thu 07:27:35 PM 26.9597 -80.5933 338° Northwest 348 400 21,100 1,645 Climbing Miami Center
Thu 07:28:37 PM 27.0511 -80.6358 338° Northwest 355 409 22,600 1,355 Climbing Miami Center
Thu 07:29:39 PM 27.1464 -80.6797 338° Northwest 364 419 23,900 1,235 Climbing Miami Center
Thu 07:30:53 PM 27.2653 -80.7350 338° Northwest 379 436 25,400 1,368 Climbing Miami Center
Thu 07:31:55 PM 27.3769 -80.7864 338° Northwest 388 447 27,000 1,171 Climbing Miami Center
Thu 07:32:56 PM 27.4561 -80.8236 337° Northwest 387 445 27,800 1,279 Climbing Miami Center
Thu 07:34:11 PM 27.5983 -80.8900 338° Northwest 393 452 29,900 1,664 Climbing Miami Center
Thu 07:35:13 PM 27.7178 -80.9453 338° Northwest 391 450 31,600 1,452 Climbing Miami Center
Thu 07:36:15 PM 27.8194 -80.9931 337° Northwest 393 452 32,900 1,355 Climbing Miami Center
Thu 07:37:17 PM 27.9219 -81.0414 337° Northwest 399 459 34,400 1,415 Climbing Miami Center
Thu 07:38:18 PM 28.0217 -81.0889 337° Northwest 394 453 35,800 1,366 Climbing Miami Center
Thu 07:39:20 PM 28.1175 -81.1336 338° Northwest 394 453 37,200 1,324 Climbing Miami Center
Thu 07:40:34 PM 28.2458 -81.1947 337° Northwest 389 448 38,800 1,029 Climbing Miami Center
Thu 07:41:00 PM 28.2940 -81.2192 337° Northwest  Level FlightAware Approximate
Thu 07:42:50 PM 28.4753 -81.2542 347° North 423 487 40,800  Level Miami Center
Thu 07:43:54 PM 28.6342 -81.2628 357° North 422 486 41,000 97 Climbing Jacksonville Center
Thu 07:44:54 PM 28.7636 -81.2703 357° North 445 512 41,000  Level Jacksonville Center
Thu 07:45:54 PM 28.8994 -81.2753 358° North 469 540 41,000  Level Jacksonville Center
Thu 07:46:54 PM 29.0331 -81.2800 358° North 474 545 41,000  Level Jacksonville Center
Thu 07:47:54 PM 29.1644 -81.2850 358° North 479 551 41,000  Level Jacksonville Center
Thu 07:48:54 PM 29.2961 -81.2900 358° North 479 551 41,000  Level Jacksonville Center
Thu 07:49:54 PM 29.4278 -81.2975 357° North 479 551 41,000  Level Jacksonville Center
Thu 07:50:54 PM 29.5531 -81.3050 357° North 467 537 41,000  Level Jacksonville Center
Thu 07:51:54 PM 29.6867 -81.3075 359° North 462 532 41,000  Level Jacksonville Center
Thu 07:52:54 PM 29.8161 -81.3150 357° North 462 532 41,000  Level Jacksonville Center
Thu 07:53:54 PM 29.9478 -81.3200 358° North 462 532 41,000  Level Jacksonville Center
Thu 07:54:54 PM 30.0753 -81.3275 357° North 462 532 41,000  Level Jacksonville Center
Thu 07:55:54 PM 30.2069 -81.3328 358° North 462 532 41,000  Level Jacksonville Center
Thu 07:56:54 PM 30.3344 -81.3403 357° North 462 532 41,000  Level Jacksonville Center
Thu 07:57:54 PM 30.4639 -81.3453 358° North 462 532 41,000  Level Jacksonville Center
Thu 07:58:54 PM 30.5914 -81.3506 358° North 462 532 41,000 -50 Level Jacksonville Center
Thu 07:59:54 PM 30.7208 -81.3558 358° North 462 532 40,900  Descending Jacksonville Center
Thu 08:00:54 PM 30.8525 -81.3633 357° North 462 532 41,000 50 Climbing Jacksonville Center
Thu 08:01:54 PM 30.9819 -81.3708 357° North 462 532 41,000  Level Jacksonville Center
Thu 08:02:54 PM 31.1114 -81.3761 358° North 462 532 41,000  Level Jacksonville Center
Thu 08:03:54 PM 31.2408 -81.3811 358° North 462 532 41,000  Level Jacksonville Center
Thu 08:04:54 PM 31.3808 -81.3886 357° North 456 525 41,000  Level Jacksonville Center
Thu 08:05:54 PM 31.5125 -81.3939 358° North 461 531 41,000  Level Jacksonville Center
Thu 08:06:54 PM 31.6275 -81.3994 358° North 461 531 41,000  Level Jacksonville Center
Thu 08:07:54 PM 31.7736 -81.4067 358° North 461 531 41,000  Level Jacksonville Center
Thu 08:08:54 PM 31.8928 -81.4122 358° North 461 531 41,000  Level Jacksonville Center
Thu 08:09:54 PM 32.0347 -81.4222 357° North 461 531 41,000  Level Jacksonville Center
Thu 08:10:54 PM 32.1664 -81.4322 356° North 475 547 41,000  Level Jacksonville Center
Thu 08:11:54 PM 32.2897 -81.4353 359° North 481 554 41,000  Level Jacksonville Center
Thu 08:12:54 PM 32.4317 -81.4403 358° North 474 545 41,000  Level Jacksonville Center
Thu 08:13:54 PM 32.5653 -81.4456 358° North 474 545 41,000  Level Jacksonville Center
Thu 08:14:54 PM 32.6844 -81.4511 358° North 473 544 41,000  Level Jacksonville Center
Thu 08:15:54 PM 32.8203 -81.4564 358° North 478 550 41,000  Level Jacksonville Center
Thu 08:16:54 PM 32.9558 -81.4642 357° North 478 550 41,000  Level Jacksonville Center
Thu 08:17:54 PM 33.0917 -81.4719 357° North 478 550 41,000  Level Jacksonville Center
Thu 08:18:54 PM 33.2378 -81.4744 359° North 478 550 41,000  Level Jacksonville Center
Thu 08:19:54 PM 33.3756 -81.4822 357° North 478 550 41,000  Level Jacksonville Center
Thu 08:20:54 PM 33.5136 -81.4900 357° North 483 556 41,000  Level Jacksonville Center
Thu 08:22:58 PM 33.7783 -81.4997 358° North 478 550 41,000  Level Atlanta Center
Thu 08:23:58 PM 33.9122 -81.5081 357° North 485 558 41,000  Level Atlanta Center
Thu 08:24:58 PM 34.0500 -81.5142 358° North 485 558 41,000  Level Atlanta Center
Thu 08:25:58 PM 34.1839 -81.5228 357° North 485 558 41,000  Level Atlanta Center
Thu 08:26:58 PM 34.3194 -81.5286 358° North 480 552 41,000  Level Atlanta Center
Thu 08:27:58 PM 34.4511 -81.5350 358° North 480 552 41,000  Level Atlanta Center
Thu 08:28:58 PM 34.5869 -81.5433 357° North 480 552 41,000  Level Atlanta Center
Thu 08:29:58 PM 34.7292 -81.5517 357° North 469 540 41,000  Level Atlanta Center
Thu 08:30:58 PM 34.8606 -81.5581 358° North 469 540 41,000  Level Atlanta Center
Thu 08:31:58 PM 34.9944 -81.5642 358° North 469 540 41,000  Level Atlanta Center
Thu 08:32:58 PM 35.1261 -81.5731 357° North 469 540 41,000  Level Atlanta Center
Thu 08:33:58 PM 35.2597 -81.5817 357° North 469 540 41,000  Level Atlanta Center
Thu 08:34:58 PM 35.3892 -81.5881 358° North 469 540 41,000  Level Atlanta Center
Thu 08:35:58 PM 35.5250 -81.5967 357° North 474 545 41,000  Level Atlanta Center
Thu 08:36:58 PM 35.6564 -81.6006 359° North 474 545 41,000  Level Atlanta Center
Thu 08:37:58 PM 35.7756 -81.6097 356° North 480 552 41,000  Level Atlanta Center
Thu 08:38:58 PM 35.9050 -81.6136 359° North 475 547 41,000  Level Atlanta Center
Thu 08:39:58 PM 36.0386 -81.6197 358° North 475 547 41,000  Level Atlanta Center
Thu 08:40:58 PM 36.1700 -81.6261 358° North 475 547 41,000  Level Atlanta Center
Thu 08:41:58 PM 36.3017 -81.6325 358° North 475 547 41,000  Level Atlanta Center
Thu 08:42:58 PM 36.4333 -81.6442 356° North 475 547 41,000  Level Atlanta Center
Thu 08:43:58 PM 36.5772 -81.6450 360° North 475 547 41,000  Level Atlanta Center
Thu 08:44:58 PM 36.7086 -81.6539 357° North 475 547 41,000  Level Atlanta Center
Thu 08:46:51 PM 36.9492 -81.6656 358° North 474 545 41,000  Level Indianapolis Center
Thu 08:47:53 PM 37.0806 -81.6725 358° North 474 545 41,000  Level Indianapolis Center
Thu 08:48:55 PM 37.2111 -81.6800 357° North 474 545 41,000  Level Indianapolis Center
Thu 08:49:56 PM 37.3631 -81.6875 358° North 473 544 41,000  Level Indianapolis Center
Thu 08:50:58 PM 37.4936 -81.6936 358° North 473 544 41,000  Level Indianapolis Center
Thu 08:51:59 PM 37.6239 -81.7011 357° North 473 544 41,000  Level Indianapolis Center
Thu 08:53:01 PM 37.7550 -81.7092 357° North 472 543 41,000  Level Indianapolis Center
Thu 08:54:03 PM 37.8822 -81.7175 357° North 474 545 41,000  Level Indianapolis Center
Thu 08:55:04 PM 38.0125 -81.7253 357° North 473 544 41,000  Level Indianapolis Center
Thu 08:56:06 PM 38.1419 -81.7319 358° North 467 537 41,000  Level Indianapolis Center
Thu 08:57:07 PM 38.2953 -81.7397 358° North 461 531 41,000 -341 Level Indianapolis Center
Thu 08:58:09 PM 38.4219 -81.7472 357° North 453 521 40,300 -1,548 Descending Indianapolis Center
Thu 08:59:11 PM 38.5492 -81.7544 357° North 453 521 37,800 -2,439 Descending Indianapolis Center
Thu 09:00:12 PM 38.6814 -81.7622 357° North 461 531 35,300 -1,854 Descending Indianapolis Center
Thu 09:01:14 PM 38.8175 -81.7689 358° North 474 545 34,000 -634 Descending Indianapolis Center
Thu 09:02:15 PM 38.9522 -81.7753 358° North 475 547 34,000 -885 Level Indianapolis Center
Thu 09:03:16 PM 39.0836 -81.7825 358° North 474 545 32,200 -1,854 Descending Indianapolis Center
Thu 09:04:18 PM 39.2150 -81.7908 357° North 472 543 30,200 -1,951 Descending Indianapolis Center
Thu 09:05:19 PM 39.3500 -81.7992 357° North 478 550 28,200 -1,951 Descending Indianapolis Center
Thu 09:06:21 PM 39.4747 -81.8058 358° North 458 527 26,200 -1,951 Descending Indianapolis Center
Thu 09:07:22 PM 39.5942 -81.8133 357° North 435 501 24,200 -2,000 Descending Indianapolis Center
Thu 09:08:24 PM 39.7156 -81.8200 358° North 423 487 22,100 -1,984 Descending Indianapolis Center
Thu 09:09:26 PM 39.8294 -81.8261 358° North 416 479 20,100 -1,951 Descending Indianapolis Center
Thu 09:10:27 PM 39.9400 -81.8325 357° North 405 466 18,100 -2,049 Descending Indianapolis Center
Thu 09:11:29 PM 40.0686 -81.8394 358° North 392 451 15,900 -2,146 Descending Indianapolis Center
Thu 09:12:30 PM 40.1636 -81.8456 357° North 354 407 13,700 -2,195 Descending Indianapolis Center
Thu 09:13:32 PM 40.2503 -81.7931 25° Northeast 351 404 11,400 -2,195 Descending Indianapolis Center
Thu 09:14:33 PM 40.3217 -81.7361 31° Northeast 310 357 9,200 -2,146 Descending Indianapolis Center
Thu 09:15:35 PM 40.3936 -81.6942 24° Northeast 287 330 7,000 -2,293 Descending Indianapolis Center
Thu 09:16:36 PM 40.4678 -81.6664 16° North 283 326 4,500 -1,951 Descending Indianapolis Center
Thu 09:17:38 PM 40.5383 -81.7025 339° North 272 313 3,000 -732 Descending Indianapolis Center
Thu 09:18:39 PM 40.6100 -81.7433 337° Northwest 272 313 3,000  Level Indianapolis Center
Thu 09:19:41 PM 40.6836 -81.7839 337° Northwest 279 321 3,000  Level Indianapolis Center
Thu 09:20:34 PM 40.7381 -81.8133 338° Northwest 277 319 3,000 -163 Level Cleveland Center
Thu 09:22:45 PM 40.8431 -81.9417 317° Northwest 230 265 2,500 -406 Descending Indianapolis Center
Thu 09:23:46 PM 40.8756 -81.9297 16° North 156 180 1,700 -537 Descending Indianapolis Center
Thu 09:24:48 PM 40.8750 -81.8758 91° East 145 167 1,400 -290 Descending Indianapolis Center

Login

Don't have an account? Register now (free) for customized features, flight alerts, and more!